<?xml version="1.0" encoding="UTF-8" standalone="no" ?>
<gpx xmlns="http://www.topografix.com/GPX/1/1" xmlns:xsi="http://www.w3.org/2001/XMLSchema-instance" xsi:schemaLocation="http://www.topografix.com/GPX/1/1 http://www.topografix.com/GPX/1/1/gpx.xsd" version="1.1" creator="VisuGPX - https://www.visugpx.com">
  <metadata>
    <name>La Vierge du Bedat</name>
  </metadata>
  <trk>
    <name><![CDATA[La Vierge du Bedat]]></name>
    <trkseg>
      <trkpt lat="43.06317" lon="0.13172">
        <ele>778</ele>
        <time>2022-03-02T09:21:01Z</time>
      </trkpt>
      <trkpt lat="43.06309" lon="0.13201">
        <ele>778</ele>
        <time>2022-03-02T09:21:48Z</time>
      </trkpt>
      <trkpt lat="43.06297" lon="0.13229">
        <ele>773</ele>
        <time>2022-03-02T09:22:03Z</time>
      </trkpt>
      <trkpt lat="43.06286" lon="0.13257">
        <ele>776</ele>
        <time>2022-03-02T09:22:25Z</time>
      </trkpt>
      <trkpt lat="43.06283" lon="0.1329">
        <ele>777</ele>
        <time>2022-03-02T09:22:43Z</time>
      </trkpt>
      <trkpt lat="43.06276" lon="0.13319">
        <ele>777</ele>
        <time>2022-03-02T09:23:01Z</time>
      </trkpt>
      <trkpt lat="43.06267" lon="0.13349">
        <ele>770</ele>
        <time>2022-03-02T09:23:20Z</time>
      </trkpt>
      <trkpt lat="43.06256" lon="0.13376">
        <ele>764</ele>
        <time>2022-03-02T09:23:36Z</time>
      </trkpt>
      <trkpt lat="43.06238" lon="0.13399">
        <ele>761</ele>
        <time>2022-03-02T09:23:53Z</time>
      </trkpt>
      <trkpt lat="43.06218" lon="0.13414">
        <ele>762</ele>
        <time>2022-03-02T09:24:09Z</time>
      </trkpt>
      <trkpt lat="43.06201" lon="0.13434">
        <ele>753</ele>
        <time>2022-03-02T09:24:39Z</time>
      </trkpt>
      <trkpt lat="43.06215" lon="0.13459">
        <ele>750</ele>
        <time>2022-03-02T09:24:58Z</time>
      </trkpt>
      <trkpt lat="43.06233" lon="0.13482">
        <ele>746</ele>
        <time>2022-03-02T09:25:13Z</time>
      </trkpt>
      <trkpt lat="43.06248" lon="0.13506">
        <ele>736</ele>
        <time>2022-03-02T09:25:36Z</time>
      </trkpt>
      <trkpt lat="43.06258" lon="0.13533">
        <ele>732</ele>
        <time>2022-03-02T09:25:53Z</time>
      </trkpt>
      <trkpt lat="43.06272" lon="0.13558">
        <ele>737</ele>
        <time>2022-03-02T09:26:15Z</time>
      </trkpt>
      <trkpt lat="43.06287" lon="0.13583">
        <ele>740</ele>
        <time>2022-03-02T09:26:34Z</time>
      </trkpt>
      <trkpt lat="43.06287" lon="0.13616">
        <ele>746</ele>
        <time>2022-03-02T09:26:52Z</time>
      </trkpt>
      <trkpt lat="43.06285" lon="0.13648">
        <ele>744</ele>
        <time>2022-03-02T09:27:11Z</time>
      </trkpt>
      <trkpt lat="43.06283" lon="0.13679">
        <ele>747</ele>
        <time>2022-03-02T09:27:32Z</time>
      </trkpt>
      <trkpt lat="43.06289" lon="0.1371">
        <ele>744</ele>
        <time>2022-03-02T09:27:48Z</time>
      </trkpt>
      <trkpt lat="43.06303" lon="0.13737">
        <ele>742</ele>
        <time>2022-03-02T09:28:02Z</time>
      </trkpt>
      <trkpt lat="43.06318" lon="0.13761">
        <ele>737</ele>
        <time>2022-03-02T09:28:19Z</time>
      </trkpt>
      <trkpt lat="43.06334" lon="0.13787">
        <ele>741</ele>
        <time>2022-03-02T09:28:41Z</time>
      </trkpt>
      <trkpt lat="43.06351" lon="0.13809">
        <ele>745</ele>
        <time>2022-03-02T09:28:55Z</time>
      </trkpt>
      <trkpt lat="43.06366" lon="0.13833">
        <ele>744</ele>
        <time>2022-03-02T09:29:10Z</time>
      </trkpt>
      <trkpt lat="43.06389" lon="0.13841">
        <ele>750</ele>
        <time>2022-03-02T09:29:29Z</time>
      </trkpt>
      <trkpt lat="43.06409" lon="0.13823">
        <ele>755</ele>
        <time>2022-03-02T09:29:48Z</time>
      </trkpt>
      <trkpt lat="43.06426" lon="0.13803">
        <ele>748</ele>
        <time>2022-03-02T09:30:06Z</time>
      </trkpt>
      <trkpt lat="43.06439" lon="0.13777">
        <ele>743</ele>
        <time>2022-03-02T09:30:23Z</time>
      </trkpt>
      <trkpt lat="43.06457" lon="0.13757">
        <ele>737</ele>
        <time>2022-03-02T09:30:41Z</time>
      </trkpt>
      <trkpt lat="43.06475" lon="0.1374">
        <ele>730</ele>
        <time>2022-03-02T09:30:57Z</time>
      </trkpt>
      <trkpt lat="43.06493" lon="0.13718">
        <ele>727</ele>
        <time>2022-03-02T09:31:19Z</time>
      </trkpt>
      <trkpt lat="43.06508" lon="0.13695">
        <ele>723</ele>
        <time>2022-03-02T09:31:35Z</time>
      </trkpt>
      <trkpt lat="43.06527" lon="0.13675">
        <ele>723</ele>
        <time>2022-03-02T09:31:53Z</time>
      </trkpt>
      <trkpt lat="43.06551" lon="0.13679">
        <ele>718</ele>
        <time>2022-03-02T09:32:56Z</time>
      </trkpt>
      <trkpt lat="43.0656" lon="0.13707">
        <ele>718</ele>
        <time>2022-03-02T09:33:13Z</time>
      </trkpt>
      <trkpt lat="43.06548" lon="0.13734">
        <ele>706</ele>
        <time>2022-03-02T09:33:37Z</time>
      </trkpt>
      <trkpt lat="43.06526" lon="0.13747">
        <ele>708</ele>
        <time>2022-03-02T09:34:01Z</time>
      </trkpt>
      <trkpt lat="43.06509" lon="0.13769">
        <ele>705</ele>
        <time>2022-03-02T09:34:21Z</time>
      </trkpt>
      <trkpt lat="43.06509" lon="0.13805">
        <ele>707</ele>
        <time>2022-03-02T09:35:59Z</time>
      </trkpt>
      <trkpt lat="43.06532" lon="0.13803">
        <ele>716</ele>
        <time>2022-03-02T09:36:20Z</time>
      </trkpt>
      <trkpt lat="43.06556" lon="0.13802">
        <ele>709</ele>
        <time>2022-03-02T09:36:44Z</time>
      </trkpt>
      <trkpt lat="43.06579" lon="0.13801">
        <ele>709</ele>
        <time>2022-03-02T09:37:08Z</time>
      </trkpt>
      <trkpt lat="43.06583" lon="0.13831">
        <ele>687</ele>
        <time>2022-03-02T09:37:54Z</time>
      </trkpt>
      <trkpt lat="43.06605" lon="0.13843">
        <ele>680</ele>
        <time>2022-03-02T09:38:12Z</time>
      </trkpt>
      <trkpt lat="43.06628" lon="0.13845">
        <ele>679</ele>
        <time>2022-03-02T09:38:38Z</time>
      </trkpt>
      <trkpt lat="43.06609" lon="0.13864">
        <ele>663</ele>
        <time>2022-03-02T09:39:03Z</time>
      </trkpt>
      <trkpt lat="43.06613" lon="0.13895">
        <ele>656</ele>
        <time>2022-03-02T09:39:41Z</time>
      </trkpt>
      <trkpt lat="43.06636" lon="0.13893">
        <ele>655</ele>
        <time>2022-03-02T09:40:07Z</time>
      </trkpt>
      <trkpt lat="43.0666" lon="0.13896">
        <ele>654</ele>
        <time>2022-03-02T09:40:30Z</time>
      </trkpt>
      <trkpt lat="43.0668" lon="0.13912">
        <ele>654</ele>
        <time>2022-03-02T09:40:57Z</time>
      </trkpt>
      <trkpt lat="43.06698" lon="0.13933">
        <ele>650</ele>
        <time>2022-03-02T09:41:21Z</time>
      </trkpt>
      <trkpt lat="43.06706" lon="0.13962">
        <ele>640</ele>
        <time>2022-03-02T09:42:07Z</time>
      </trkpt>
      <trkpt lat="43.06683" lon="0.13962">
        <ele>638</ele>
        <time>2022-03-02T09:42:55Z</time>
      </trkpt>
      <trkpt lat="43.06666" lon="0.13981">
        <ele>635</ele>
        <time>2022-03-02T09:43:21Z</time>
      </trkpt>
      <trkpt lat="43.06664" lon="0.14013">
        <ele>618</ele>
        <time>2022-03-02T09:44:13Z</time>
      </trkpt>
      <trkpt lat="43.06666" lon="0.14044">
        <ele>612</ele>
        <time>2022-03-02T09:44:36Z</time>
      </trkpt>
      <trkpt lat="43.06665" lon="0.14075">
        <ele>603</ele>
        <time>2022-03-02T09:44:55Z</time>
      </trkpt>
      <trkpt lat="43.06662" lon="0.14107">
        <ele>599</ele>
        <time>2022-03-02T09:45:14Z</time>
      </trkpt>
      <trkpt lat="43.06654" lon="0.14136">
        <ele>608</ele>
        <time>2022-03-02T09:45:35Z</time>
      </trkpt>
      <trkpt lat="43.06636" lon="0.14155">
        <ele>591</ele>
        <time>2022-03-02T09:46:55Z</time>
      </trkpt>
      <trkpt lat="43.06641" lon="0.14185">
        <ele>584</ele>
        <time>2022-03-02T09:47:51Z</time>
      </trkpt>
      <trkpt lat="43.06649" lon="0.14214">
        <ele>579</ele>
        <time>2022-03-02T09:48:29Z</time>
      </trkpt>
      <trkpt lat="43.06658" lon="0.14243">
        <ele>563</ele>
        <time>2022-03-02T09:49:53Z</time>
      </trkpt>
      <trkpt lat="43.0666" lon="0.14275">
        <ele>557</ele>
        <time>2022-03-02T09:50:18Z</time>
      </trkpt>
      <trkpt lat="43.06654" lon="0.14306">
        <ele>555</ele>
        <time>2022-03-02T09:50:37Z</time>
      </trkpt>
      <trkpt lat="43.06639" lon="0.1433">
        <ele>553</ele>
        <time>2022-03-02T09:50:56Z</time>
      </trkpt>
      <trkpt lat="43.06619" lon="0.14347">
        <ele>550</ele>
        <time>2022-03-02T09:51:16Z</time>
      </trkpt>
      <trkpt lat="43.06599" lon="0.14361">
        <ele>546</ele>
        <time>2022-03-02T09:51:34Z</time>
      </trkpt>
      <trkpt lat="43.0658" lon="0.1438">
        <ele>544</ele>
        <time>2022-03-02T09:51:52Z</time>
      </trkpt>
      <trkpt lat="43.06559" lon="0.14391">
        <ele>537</ele>
        <time>2022-03-02T09:53:29Z</time>
      </trkpt>
      <trkpt lat="43.06538" lon="0.14403">
        <ele>537</ele>
        <time>2022-03-02T09:53:50Z</time>
      </trkpt>
      <trkpt lat="43.06519" lon="0.14424">
        <ele>540</ele>
        <time>2022-03-02T09:54:06Z</time>
      </trkpt>
      <trkpt lat="43.06503" lon="0.14451">
        <ele>548</ele>
        <time>2022-03-02T09:54:26Z</time>
      </trkpt>
      <trkpt lat="43.06484" lon="0.14468">
        <ele>553</ele>
        <time>2022-03-02T09:54:45Z</time>
      </trkpt>
      <trkpt lat="43.06472" lon="0.14495">
        <ele>550</ele>
        <time>2022-03-02T09:55:00Z</time>
      </trkpt>
      <trkpt lat="43.06455" lon="0.14517">
        <ele>547</ele>
        <time>2022-03-02T09:55:20Z</time>
      </trkpt>
      <trkpt lat="43.06438" lon="0.14539">
        <ele>549</ele>
        <time>2022-03-02T09:55:40Z</time>
      </trkpt>
      <trkpt lat="43.06419" lon="0.14559">
        <ele>549</ele>
        <time>2022-03-02T09:55:55Z</time>
      </trkpt>
      <trkpt lat="43.06404" lon="0.14582">
        <ele>542</ele>
        <time>2022-03-02T09:56:14Z</time>
      </trkpt>
      <trkpt lat="43.06387" lon="0.14602">
        <ele>543</ele>
        <time>2022-03-02T09:56:35Z</time>
      </trkpt>
      <trkpt lat="43.06365" lon="0.14609">
        <ele>544</ele>
        <time>2022-03-02T09:56:55Z</time>
      </trkpt>
      <trkpt lat="43.06349" lon="0.14632">
        <ele>543</ele>
        <time>2022-03-02T09:57:17Z</time>
      </trkpt>
      <trkpt lat="43.06333" lon="0.14655">
        <ele>552</ele>
        <time>2022-03-02T09:57:38Z</time>
      </trkpt>
      <trkpt lat="43.06312" lon="0.14667">
        <ele>556</ele>
        <time>2022-03-02T09:57:53Z</time>
      </trkpt>
      <trkpt lat="43.06292" lon="0.14685">
        <ele>558</ele>
        <time>2022-03-02T09:58:13Z</time>
      </trkpt>
      <trkpt lat="43.06274" lon="0.14709">
        <ele>557</ele>
        <time>2022-03-02T09:58:30Z</time>
      </trkpt>
      <trkpt lat="43.06262" lon="0.14735">
        <ele>561</ele>
        <time>2022-03-02T09:58:49Z</time>
      </trkpt>
      <trkpt lat="43.06238" lon="0.14743">
        <ele>560</ele>
        <time>2022-03-02T09:59:10Z</time>
      </trkpt>
      <trkpt lat="43.06226" lon="0.14771">
        <ele>556</ele>
        <time>2022-03-02T09:59:24Z</time>
      </trkpt>
      <trkpt lat="43.06212" lon="0.14795">
        <ele>553</ele>
        <time>2022-03-02T10:00:03Z</time>
      </trkpt>
      <trkpt lat="43.06196" lon="0.14817">
        <ele>548</ele>
        <time>2022-03-02T10:00:20Z</time>
      </trkpt>
      <trkpt lat="43.0618" lon="0.1484">
        <ele>551</ele>
        <time>2022-03-02T10:00:38Z</time>
      </trkpt>
      <trkpt lat="43.06165" lon="0.14863">
        <ele>548</ele>
        <time>2022-03-02T10:00:57Z</time>
      </trkpt>
      <trkpt lat="43.06151" lon="0.14888">
        <ele>550</ele>
        <time>2022-03-02T10:01:14Z</time>
      </trkpt>
      <trkpt lat="43.06129" lon="0.14883">
        <ele>566</ele>
        <time>2022-03-02T10:01:33Z</time>
      </trkpt>
      <trkpt lat="43.06108" lon="0.14871">
        <ele>566</ele>
        <time>2022-03-02T10:01:49Z</time>
      </trkpt>
      <trkpt lat="43.06085" lon="0.14864">
        <ele>568</ele>
        <time>2022-03-02T10:02:06Z</time>
      </trkpt>
      <trkpt lat="43.06064" lon="0.14854">
        <ele>578</ele>
        <time>2022-03-02T10:02:23Z</time>
      </trkpt>
      <trkpt lat="43.06042" lon="0.1484">
        <ele>566</ele>
        <time>2022-03-02T10:02:39Z</time>
      </trkpt>
      <trkpt lat="43.06023" lon="0.14823">
        <ele>559</ele>
        <time>2022-03-02T10:02:59Z</time>
      </trkpt>
      <trkpt lat="43.06003" lon="0.14806">
        <ele>549</ele>
        <time>2022-03-02T10:03:20Z</time>
      </trkpt>
      <trkpt lat="43.05983" lon="0.14789">
        <ele>548</ele>
        <time>2022-03-02T10:03:34Z</time>
      </trkpt>
      <trkpt lat="43.0596" lon="0.14788">
        <ele>549</ele>
        <time>2022-03-02T10:03:47Z</time>
      </trkpt>
      <trkpt lat="43.05939" lon="0.14778">
        <ele>563</ele>
        <time>2022-03-02T10:04:07Z</time>
      </trkpt>
      <trkpt lat="43.05916" lon="0.14769">
        <ele>570</ele>
        <time>2022-03-02T10:04:25Z</time>
      </trkpt>
      <trkpt lat="43.05901" lon="0.14745">
        <ele>564</ele>
        <time>2022-03-02T10:04:41Z</time>
      </trkpt>
      <trkpt lat="43.05894" lon="0.14715">
        <ele>559</ele>
        <time>2022-03-02T10:04:58Z</time>
      </trkpt>
    </trkseg>
  </trk>
</gpx>